createdAt,value
2017-11-15T00:00:18.835Z,0
2017-11-15T00:01:19.182Z,0
2017-11-15T00:02:19.075Z,0
2017-11-15T00:03:19.329Z,0
2017-11-15T00:04:19.052Z,0
2017-11-15T00:05:19.309Z,0
2017-11-15T00:06:19.032Z,0
2017-11-15T00:07:18.773Z,0
2017-11-15T00:08:19.007Z,0
2017-11-15T00:09:19.263Z,0
2017-11-15T00:10:18.994Z,0
2017-11-15T00:11:18.985Z,0
2017-11-15T00:12:18.974Z,0
2017-11-15T00:13:18.697Z,0
2017-11-15T00:14:19.215Z,0
2017-11-15T00:15:19.208Z,0
2017-11-15T00:16:19.285Z,0
2017-11-15T00:17:19.325Z,0
2017-11-15T00:18:19.175Z,0
2017-11-15T00:19:19.158Z,0
2017-11-15T00:20:19.244Z,0
2017-11-15T00:21:19.140Z,0
2017-11-15T00:22:18.865Z,0
2017-11-15T00:23:18.856Z,0
2017-11-15T00:24:19.115Z,0
2017-11-15T00:25:19.094Z,0
2017-11-15T00:26:19.080Z,0
2017-11-15T00:27:18.814Z,0
2017-11-15T00:28:19.072Z,0
2017-11-15T00:29:18.792Z,0
2017-11-15T00:30:18.779Z,0
2017-11-15T00:31:19.039Z,0
2017-11-15T00:32:18.506Z,0
2017-11-15T00:33:18.492Z,0
2017-11-15T00:34:19.022Z,0
2017-11-15T00:35:18.464Z,0
2017-11-15T00:36:18.723Z,0
2017-11-15T00:37:18.712Z,0
2017-11-15T00:38:18.700Z,0
2017-11-15T00:39:18.791Z,0
2017-11-15T00:40:18.929Z,0
2017-11-15T00:41:19.135Z,0
2017-11-15T00:42:18.654Z,0
2017-11-15T00:43:18.908Z,0
2017-11-15T00:44:18.994Z,0
2017-11-15T00:45:18.631Z,0
2017-11-15T00:46:18.879Z,0
2017-11-15T00:47:18.875Z,0
2017-11-15T00:48:18.593Z,0
2017-11-15T00:49:19.093Z,0
2017-11-15T00:50:18.576Z,0
2017-11-15T00:51:18.043Z,0
2017-11-15T00:52:18.806Z,0
2017-11-15T00:53:18.540Z,0
2017-11-15T00:54:18.278Z,0
2017-11-15T00:55:18.515Z,0
2017-11-15T00:56:18.512Z,0
2017-11-15T00:57:18.767Z,0
2017-11-15T00:58:18.487Z,0
2017-11-15T00:59:18.737Z,0
2017-11-15T01:00:18.468Z,0
2017-11-15T01:01:18.739Z,0
2017-11-15T01:02:18.451Z,0
2017-11-15T01:03:18.691Z,0
2017-11-15T01:04:18.695Z,0
2017-11-15T01:05:18.437Z,0
2017-11-15T01:06:18.674Z,0
2017-11-15T01:07:18.491Z,0
2017-11-15T01:08:18.382Z,0
2017-11-15T01:09:18.392Z,0
2017-11-15T01:10:18.651Z,0
2017-11-15T01:11:18.089Z,0
2017-11-15T01:12:18.340Z,0
2017-11-15T01:13:18.329Z,0
2017-11-15T01:14:17.799Z,0
2017-11-15T01:15:18.679Z,0
2017-11-15T01:16:18.299Z,0
2017-11-15T01:17:18.291Z,0
2017-11-15T01:18:18.440Z,0
2017-11-15T01:19:18.528Z,0
2017-11-15T01:20:18.263Z,0
2017-11-15T01:21:18.504Z,0
2017-11-15T01:22:18.494Z,0
2017-11-15T01:23:18.692Z,0
2017-11-15T01:24:18.477Z,0
2017-11-15T01:25:18.209Z,0
2017-11-15T01:26:18.451Z,0
2017-11-15T01:27:17.928Z,0
2017-11-15T01:28:18.534Z,0
2017-11-15T01:29:18.429Z,0
2017-11-15T01:30:18.157Z,0
2017-11-15T01:31:18.525Z,0
2017-11-15T01:32:18.387Z,0
2017-11-15T01:33:18.117Z,0
2017-11-15T01:34:18.579Z,0
2017-11-15T01:35:18.108Z,0
2017-11-15T01:36:18.090Z,0
2017-11-15T01:37:18.339Z,0
2017-11-15T01:38:18.071Z,0
2017-11-15T01:39:18.060Z,0
2017-11-15T01:40:17.638Z,0
2017-11-15T01:41:18.040Z,0
2017-11-15T01:42:18.029Z,0
2017-11-15T01:43:18.277Z,0
2017-11-15T01:44:17.855Z,0
2017-11-15T01:45:17.997Z,0
2017-11-15T01:46:18.004Z,0
2017-11-15T01:47:17.975Z,0
2017-11-15T01:48:17.974Z,0
2017-11-15T01:49:17.794Z,0
2017-11-15T01:50:18.045Z,0
2017-11-15T01:51:17.414Z,0
2017-11-15T01:52:18.185Z,0
2017-11-15T01:53:18.181Z,0
2017-11-15T01:54:17.910Z,0
2017-11-15T01:55:18.152Z,0
2017-11-15T01:56:18.149Z,0
2017-11-15T01:57:18.229Z,0
2017-11-15T01:58:17.861Z,0
2017-11-15T01:59:17.847Z,0
2017-11-15T02:00:18.098Z,0
2017-11-15T02:01:18.099Z,0
2017-11-15T02:02:17.655Z,0
2017-11-15T02:03:18.071Z,0
2017-11-15T02:04:18.064Z,0
2017-11-15T02:05:18.048Z,0
2017-11-15T02:06:18.058Z,0
2017-11-15T02:07:18.065Z,0
2017-11-15T02:08:18.118Z,0
2017-11-15T02:09:18.011Z,0
2017-11-15T02:10:17.213Z,0
2017-11-15T02:11:17.982Z,0
2017-11-15T02:12:17.712Z,0
2017-11-15T02:13:17.962Z,0
2017-11-15T02:14:17.696Z,0
2017-11-15T02:15:17.677Z,0
2017-11-15T02:16:18.026Z,0
2017-11-15T02:17:17.398Z,0
2017-11-15T02:18:17.645Z,0
2017-11-15T02:19:17.381Z,0
2017-11-15T02:20:17.632Z,0
2017-11-15T02:21:17.876Z,0
2017-11-15T02:22:17.864Z,0
2017-11-15T02:23:17.959Z,0
2017-11-15T02:24:17.324Z,0
2017-11-15T02:25:17.981Z,0
2017-11-15T02:26:17.832Z,0
2017-11-15T02:27:17.658Z,0
2017-11-15T02:28:17.544Z,0
2017-11-15T02:29:17.798Z,0
2017-11-15T02:30:17.524Z,0
2017-11-15T02:31:17.534Z,0
2017-11-15T02:32:17.757Z,0
2017-11-15T02:33:17.767Z,0
2017-11-15T02:34:17.225Z,0
2017-11-15T02:35:17.736Z,0
2017-11-15T02:36:17.462Z,0
2017-11-15T02:37:17.745Z,0
2017-11-15T02:38:17.441Z,0
2017-11-15T02:39:17.438Z,0
2017-11-15T02:40:17.156Z,0
2017-11-15T02:41:17.409Z,0
2017-11-15T02:42:17.400Z,0
2017-11-15T02:43:17.804Z,0
2017-11-15T02:44:17.746Z,0
2017-11-15T02:45:17.106Z,0
2017-11-15T02:46:17.355Z,0
2017-11-15T02:47:17.342Z,0
2017-11-15T02:48:17.361Z,0
2017-11-15T02:49:17.731Z,0
2017-11-15T02:50:17.570Z,0
2017-11-15T02:51:17.298Z,0
2017-11-15T02:52:17.551Z,0
2017-11-15T02:53:17.020Z,0
2017-11-15T02:54:17.526Z,0
2017-11-15T02:55:17.269Z,0
2017-11-15T02:56:17.508Z,0
2017-11-15T02:57:17.454Z,0
2017-11-15T02:58:17.591Z,0
2017-11-15T02:59:17.583Z,0
2017-11-15T03:00:16.949Z,0
2017-11-15T03:01:17.194Z,0
2017-11-15T03:02:17.442Z,0
2017-11-15T03:03:17.176Z,0
2017-11-15T03:04:17.158Z,0
2017-11-15T03:05:17.418Z,0
2017-11-15T03:06:17.400Z,0
2017-11-15T03:07:16.869Z,0
2017-11-15T03:08:17.121Z,0
2017-11-15T03:09:17.113Z,0
2017-11-15T03:10:17.203Z,0
2017-11-15T03:11:17.352Z,0
2017-11-15T03:12:17.449Z,0
2017-11-15T03:13:17.327Z,0
2017-11-15T03:14:17.320Z,0
2017-11-15T03:15:17.048Z,0
2017-11-15T03:16:17.043Z,0
2017-11-15T03:17:17.186Z,0
2017-11-15T03:18:17.011Z,0
2017-11-15T03:19:17.273Z,0
2017-11-15T03:20:17.100Z,0
2017-11-15T03:21:17.245Z,0
2017-11-15T03:22:17.368Z,0
2017-11-15T03:23:17.218Z,0
2017-11-15T03:24:17.216Z,0
2017-11-15T03:25:17.216Z,0
2017-11-15T03:26:17.196Z,0
2017-11-15T03:27:17.176Z,0
2017-11-15T03:28:16.907Z,0
2017-11-15T03:29:16.641Z,0
2017-11-15T03:30:17.207Z,0
2017-11-15T03:31:16.909Z,0
2017-11-15T03:32:16.874Z,0
2017-11-15T03:33:16.848Z,0
2017-11-15T03:34:16.994Z,0
2017-11-15T03:35:16.930Z,0
2017-11-15T03:36:17.085Z,0
2017-11-15T03:37:16.829Z,0
2017-11-15T03:38:17.090Z,0
2017-11-15T03:39:17.058Z,0
2017-11-15T03:40:16.517Z,0
2017-11-15T03:41:16.863Z,0
2017-11-15T03:42:17.016Z,0
2017-11-15T03:43:17.012Z,0
2017-11-15T03:44:17.001Z,0
2017-11-15T03:45:17.139Z,0
2017-11-15T03:46:17.071Z,0
2017-11-15T03:47:16.705Z,0
2017-11-15T03:48:16.952Z,0
2017-11-15T03:49:16.937Z,0
2017-11-15T03:50:16.928Z,0
2017-11-15T03:51:16.672Z,0
2017-11-15T03:52:16.760Z,0
2017-11-15T03:53:16.902Z,0
2017-11-15T03:54:16.665Z,0
2017-11-15T03:55:16.624Z,0
2017-11-15T03:56:16.866Z,0
2017-11-15T03:57:16.954Z,0
2017-11-15T03:58:16.328Z,0
2017-11-15T03:59:16.880Z,0
2017-11-15T04:00:16.318Z,0
2017-11-15T04:01:16.560Z,0
2017-11-15T04:02:16.539Z,0
2017-11-15T04:03:16.812Z,0
2017-11-15T04:04:16.786Z,0
2017-11-15T04:05:16.765Z,0
2017-11-15T04:06:16.754Z,0
2017-11-15T04:07:16.493Z,0
2017-11-15T04:08:16.837Z,0
2017-11-15T04:09:16.726Z,0
2017-11-15T04:10:16.720Z,0
2017-11-15T04:11:16.183Z,0
2017-11-15T04:12:16.178Z,0
2017-11-15T04:13:16.440Z,0
2017-11-15T04:14:16.620Z,0
2017-11-15T04:15:16.140Z,0
2017-11-15T04:16:16.497Z,0
2017-11-15T04:17:16.647Z,0
2017-11-15T04:18:16.631Z,0
2017-11-15T04:19:16.357Z,0
2017-11-15T04:20:16.612Z,0
2017-11-15T04:21:16.340Z,0
2017-11-15T04:22:16.324Z,0
2017-11-15T04:23:16.430Z,0
2017-11-15T04:24:16.455Z,0
2017-11-15T04:25:16.655Z,0
2017-11-15T04:26:16.544Z,0
2017-11-15T04:27:16.286Z,0
2017-11-15T04:28:16.261Z,0
2017-11-15T04:29:16.528Z,0
2017-11-15T04:30:16.239Z,0
2017-11-15T04:31:16.485Z,0
2017-11-15T04:32:16.222Z,0
2017-11-15T04:33:16.475Z,0
2017-11-15T04:34:16.564Z,0
2017-11-15T04:35:16.450Z,0
2017-11-15T04:36:16.437Z,0
2017-11-15T04:37:16.161Z,0
2017-11-15T04:38:16.423Z,0
2017-11-15T04:39:16.147Z,0
2017-11-15T04:40:16.143Z,0
2017-11-15T04:41:16.122Z,0
2017-11-15T04:42:16.379Z,0
2017-11-15T04:43:16.365Z,0
2017-11-15T04:44:15.861Z,0
2017-11-15T04:45:16.344Z,0
2017-11-15T04:46:16.169Z,0
2017-11-15T04:47:16.326Z,0
2017-11-15T04:48:16.412Z,0
2017-11-15T04:49:16.309Z,0
2017-11-15T04:50:16.026Z,0
2017-11-15T04:51:15.751Z,0
2017-11-15T04:52:16.265Z,0
2017-11-15T04:53:15.994Z,0
2017-11-15T04:54:15.994Z,0
2017-11-15T04:55:15.972Z,0
2017-11-15T04:56:15.960Z,0
2017-11-15T04:57:15.950Z,0
2017-11-15T04:58:15.939Z,0
2017-11-15T04:59:15.669Z,0
2017-11-15T05:00:16.186Z,0
2017-11-15T05:01:15.907Z,0
2017-11-15T05:02:16.271Z,0
2017-11-15T05:03:15.631Z,0
2017-11-15T05:04:15.975Z,0
2017-11-15T05:05:15.867Z,0
2017-11-15T05:06:16.122Z,0
2017-11-15T05:07:15.948Z,0
2017-11-15T05:08:16.103Z,0
2017-11-15T05:09:16.091Z,0
2017-11-15T05:10:15.504Z,0
2017-11-15T05:11:16.064Z,0
2017-11-15T05:12:16.048Z,0
2017-11-15T05:13:16.047Z,0
2017-11-15T05:14:16.024Z,0
2017-11-15T05:15:15.498Z,0
2017-11-15T05:16:16.109Z,0
2017-11-15T05:17:15.995Z,0
2017-11-15T05:18:15.828Z,0
2017-11-15T05:19:15.977Z,0
2017-11-15T05:20:15.715Z,0
2017-11-15T05:21:15.457Z,0
2017-11-15T05:22:15.943Z,0
2017-11-15T05:23:16.143Z,0
2017-11-15T05:24:15.400Z,0
2017-11-15T05:25:15.911Z,0
2017-11-15T05:26:15.637Z,0
2017-11-15T05:27:15.634Z,0
2017-11-15T05:28:15.973Z,0
2017-11-15T05:29:15.367Z,0
2017-11-15T05:30:15.851Z,0
2017-11-15T05:31:15.853Z,0
2017-11-15T05:32:15.949Z,0
2017-11-15T05:33:15.830Z,0
2017-11-15T05:34:15.553Z,0
2017-11-15T05:35:15.542Z,0
2017-11-15T05:36:15.786Z,0
2017-11-15T05:37:15.268Z,0
2017-11-15T05:38:15.516Z,0
2017-11-15T05:39:15.511Z,0
2017-11-15T05:40:15.647Z,0
2017-11-15T05:41:15.474Z,0
2017-11-15T05:42:15.468Z,0
2017-11-15T05:43:15.564Z,0
2017-11-15T05:44:15.730Z,0
2017-11-15T05:45:15.439Z,0
2017-11-15T05:46:15.707Z,0
2017-11-15T05:47:15.417Z,0
2017-11-15T05:48:15.501Z,0
2017-11-15T05:49:15.661Z,0
2017-11-15T05:50:15.642Z,0
2017-11-15T05:51:15.375Z,0
2017-11-15T05:52:15.364Z,0
2017-11-15T05:53:15.186Z,0
2017-11-15T05:54:15.337Z,0
2017-11-15T05:55:15.597Z,0
2017-11-15T05:56:15.575Z,0
2017-11-15T05:57:15.663Z,0
2017-11-15T05:58:15.039Z,0
2017-11-15T05:59:15.544Z,0
2017-11-15T06:00:15.661Z,0
2017-11-15T06:01:15.264Z,0
2017-11-15T06:02:15.514Z,0
2017-11-15T06:03:15.501Z,0
2017-11-15T06:04:15.226Z,0
2017-11-15T06:05:15.325Z,0
2017-11-15T06:06:14.688Z,0
2017-11-15T06:07:14.939Z,0
2017-11-15T06:08:15.454Z,4
2017-11-15T06:09:15.450Z,4
2017-11-15T06:10:15.402Z,0
2017-11-15T06:11:15.476Z,4
2017-11-15T06:12:14.995Z,4
2017-11-15T06:13:15.772Z,4
2017-11-15T06:14:15.719Z,8
2017-11-15T06:15:15.568Z,8
2017-11-15T06:16:15.386Z,8
2017-11-15T06:17:15.351Z,8
2017-11-15T06:18:15.038Z,8
2017-11-15T06:19:15.464Z,12
2017-11-15T06:20:15.710Z,12
2017-11-15T06:21:14.885Z,16
2017-11-15T06:22:15.778Z,20
2017-11-15T06:23:15.157Z,20
2017-11-15T06:24:15.265Z,24
2017-11-15T06:25:15.282Z,24
2017-11-15T06:26:15.584Z,28
2017-11-15T06:27:14.939Z,28
2017-11-15T06:28:15.122Z,32
2017-11-15T06:29:15.675Z,36
2017-11-15T06:30:15.404Z,40
2017-11-15T06:31:14.973Z,48
2017-11-15T06:32:15.584Z,48
2017-11-15T06:33:15.430Z,56
2017-11-15T06:34:15.353Z,56
2017-11-15T06:35:15.134Z,60
2017-11-15T06:36:15.027Z,64
2017-11-15T06:37:15.019Z,72
2017-11-15T06:38:14.861Z,76
2017-11-15T06:39:14.855Z,84
2017-11-15T06:40:14.587Z,88
2017-11-15T06:41:15.104Z,96
2017-11-15T06:42:14.927Z,100
2017-11-15T06:43:15.069Z,104
2017-11-15T06:44:14.813Z,108
2017-11-15T06:45:14.890Z,112
2017-11-15T06:46:14.515Z,120
2017-11-15T06:47:14.771Z,124
2017-11-15T06:48:14.594Z,128
2017-11-15T06:49:15.008Z,136
2017-11-15T06:50:14.732Z,140
2017-11-15T06:51:14.978Z,144
2017-11-15T06:52:14.452Z,152
2017-11-15T06:53:14.963Z,156
2017-11-15T06:54:14.711Z,156
2017-11-15T06:55:14.423Z,164
2017-11-15T06:56:14.926Z,168
2017-11-15T06:57:14.669Z,176
2017-11-15T06:58:14.645Z,176
2017-11-15T06:59:14.122Z,180
2017-11-15T07:00:14.372Z,188
2017-11-15T07:01:14.614Z,196
2017-11-15T07:02:14.872Z,200
2017-11-15T07:03:14.599Z,204
2017-11-15T07:04:14.855Z,208
2017-11-15T07:05:14.593Z,212
2017-11-15T07:06:14.300Z,216
2017-11-15T07:07:14.549Z,220
2017-11-15T07:08:14.639Z,224
2017-11-15T07:09:14.527Z,228
2017-11-15T07:10:14.536Z,228
2017-11-15T07:11:14.517Z,232
2017-11-15T07:12:14.775Z,236
2017-11-15T07:13:14.759Z,236
2017-11-15T07:14:14.595Z,240
2017-11-15T07:15:14.590Z,244
2017-11-15T07:16:14.196Z,252
2017-11-15T07:17:14.544Z,252
2017-11-15T07:18:14.691Z,256
2017-11-15T07:19:14.423Z,260
2017-11-15T07:20:14.409Z,260
2017-11-15T07:21:14.770Z,264
2017-11-15T07:22:14.129Z,268
2017-11-15T07:23:14.641Z,272
2017-11-15T07:24:14.209Z,276
2017-11-15T07:25:14.359Z,280
2017-11-15T07:26:14.616Z,280
2017-11-15T07:27:14.339Z,280
2017-11-15T07:28:14.428Z,288
2017-11-15T07:29:14.158Z,288
2017-11-15T07:30:14.588Z,292
2017-11-15T07:31:14.310Z,296
2017-11-15T07:32:14.031Z,300
2017-11-15T07:33:14.542Z,308
2017-11-15T07:34:14.525Z,308
2017-11-15T07:35:14.714Z,312
2017-11-15T07:36:14.498Z,316
2017-11-15T07:37:14.489Z,312
2017-11-15T07:38:14.216Z,312
2017-11-15T07:39:13.953Z,324
2017-11-15T07:40:14.466Z,316
2017-11-15T07:41:13.930Z,316
2017-11-15T07:42:14.174Z,320
2017-11-15T07:43:14.272Z,328
2017-11-15T07:44:14.430Z,332
2017-11-15T07:45:14.401Z,332
2017-11-15T07:46:14.235Z,336
2017-11-15T07:47:14.389Z,340
2017-11-15T07:48:13.952Z,340
2017-11-15T07:49:14.383Z,348
2017-11-15T07:50:14.088Z,348
2017-11-15T07:51:14.336Z,340
2017-11-15T07:52:14.326Z,348
2017-11-15T07:53:14.315Z,368
2017-11-15T07:54:14.310Z,372
2017-11-15T07:55:14.044Z,380
2017-11-15T07:56:14.294Z,376
2017-11-15T07:57:14.395Z,388
2017-11-15T07:58:13.743Z,380
2017-11-15T07:59:13.991Z,384
2017-11-15T08:00:13.991Z,392
2017-11-15T08:01:13.971Z,424
2017-11-15T08:02:14.259Z,432
2017-11-15T08:03:13.955Z,424
2017-11-15T08:04:14.205Z,432
2017-11-15T08:05:13.933Z,428
2017-11-15T08:06:14.178Z,436
2017-11-15T08:07:13.913Z,496
2017-11-15T08:08:13.902Z,516
2017-11-15T08:09:13.892Z,516
2017-11-15T08:10:14.138Z,548
2017-11-15T08:11:14.226Z,544
2017-11-15T08:12:13.960Z,524
2017-11-15T08:13:13.585Z,488
2017-11-15T08:14:13.831Z,472
2017-11-15T08:15:14.096Z,476
2017-11-15T08:16:14.079Z,492
2017-11-15T08:17:13.831Z,508
2017-11-15T08:18:14.063Z,532
2017-11-15T08:19:13.522Z,540
2017-11-15T08:20:13.769Z,544
2017-11-15T08:21:14.019Z,512
2017-11-15T08:22:13.484Z,488
2017-11-15T08:23:13.764Z,472
2017-11-15T08:24:13.728Z,468
2017-11-15T08:25:13.714Z,476
2017-11-15T08:26:13.481Z,484
2017-11-15T08:27:13.703Z,488
2017-11-15T08:28:13.952Z,488
2017-11-15T08:29:14.178Z,484
2017-11-15T08:30:13.415Z,492
2017-11-15T08:31:13.651Z,496
2017-11-15T08:32:13.644Z,496
2017-11-15T08:33:13.628Z,484
2017-11-15T08:34:13.876Z,480
2017-11-15T08:35:13.455Z,484
2017-11-15T08:36:13.863Z,484
2017-11-15T08:37:13.843Z,488
2017-11-15T08:38:13.842Z,484
2017-11-15T08:39:13.568Z,480
2017-11-15T08:40:13.572Z,488
2017-11-15T08:41:13.799Z,488
2017-11-15T08:42:13.544Z,488
2017-11-15T08:43:13.525Z,496
2017-11-15T08:44:13.251Z,496
2017-11-15T08:45:13.509Z,496
2017-11-15T08:46:13.504Z,488
2017-11-15T08:47:13.492Z,492
2017-11-15T08:48:13.205Z,496
2017-11-15T08:49:13.195Z,488
2017-11-15T08:50:13.444Z,496
2017-11-15T08:51:13.812Z,480
2017-11-15T08:52:13.801Z,496
2017-11-15T08:53:13.151Z,500
2017-11-15T08:54:13.665Z,496
2017-11-15T08:55:13.402Z,504
2017-11-15T08:56:12.864Z,508
2017-11-15T08:57:13.468Z,496
2017-11-15T08:58:13.621Z,508
2017-11-15T08:59:13.712Z,508
2017-11-15T09:00:13.599Z,516
2017-11-15T09:01:13.689Z,512
2017-11-15T09:02:13.321Z,520
2017-11-15T09:03:13.567Z,516
2017-11-15T09:04:13.558Z,520
2017-11-15T09:05:13.293Z,524
2017-11-15T09:06:13.278Z,524
2017-11-15T09:07:13.263Z,524
2017-11-15T09:08:13.362Z,524
2017-11-15T09:09:13.243Z,524
2017-11-15T09:10:13.515Z,532
2017-11-15T09:11:13.222Z,528
2017-11-15T09:12:13.479Z,524
2017-11-15T09:13:13.218Z,524
2017-11-15T09:14:13.185Z,528
2017-11-15T09:15:13.188Z,536
2017-11-15T09:16:13.172Z,532
2017-11-15T09:17:12.906Z,536
2017-11-15T09:18:13.428Z,540
2017-11-15T09:19:13.135Z,544
2017-11-15T09:20:12.869Z,548
2017-11-15T09:21:12.885Z,548
2017-11-15T09:22:13.112Z,544
2017-11-15T09:23:12.840Z,544
2017-11-15T09:24:13.087Z,552
2017-11-15T09:25:13.074Z,556
2017-11-15T09:26:13.067Z,552
2017-11-15T09:27:13.323Z,552
2017-11-15T09:28:13.047Z,552
2017-11-15T09:29:13.297Z,556
2017-11-15T09:30:12.866Z,552
2017-11-15T09:31:13.277Z,556
2017-11-15T09:32:12.756Z,556
2017-11-15T09:33:12.996Z,560
2017-11-15T09:34:12.982Z,576
2017-11-15T09:35:12.972Z,568
2017-11-15T09:36:13.225Z,564
2017-11-15T09:37:13.208Z,568
2017-11-15T09:38:13.208Z,576
2017-11-15T09:39:13.187Z,568
2017-11-15T09:40:12.920Z,568
2017-11-15T09:41:12.915Z,568
2017-11-15T09:42:12.900Z,572
2017-11-15T09:43:13.160Z,576
2017-11-15T09:44:12.647Z,576
2017-11-15T09:45:13.020Z,568
2017-11-15T09:46:13.118Z,588
2017-11-15T09:47:13.106Z,584
2017-11-15T09:48:12.578Z,568
2017-11-15T09:49:13.082Z,588
2017-11-15T09:50:12.555Z,584
2017-11-15T09:51:12.805Z,572
2017-11-15T09:52:13.073Z,584
2017-11-15T09:53:12.522Z,576
2017-11-15T09:54:13.041Z,588
2017-11-15T09:55:12.778Z,592
2017-11-15T09:56:12.754Z,592
2017-11-15T09:57:13.016Z,596
2017-11-15T09:58:12.732Z,588
2017-11-15T09:59:13.087Z,596
2017-11-15T10:00:12.974Z,592
2017-11-15T10:01:12.733Z,604
2017-11-15T10:02:12.799Z,600
2017-11-15T10:03:12.952Z,604
2017-11-15T10:04:12.926Z,604
2017-11-15T10:05:12.934Z,604
2017-11-15T10:06:12.389Z,600
2017-11-15T10:07:12.638Z,612
2017-11-15T10:08:12.886Z,616
2017-11-15T10:09:12.618Z,620
2017-11-15T10:10:12.871Z,624
2017-11-15T10:11:13.013Z,628
2017-11-15T10:12:12.583Z,628
2017-11-15T10:13:12.863Z,628
2017-11-15T10:14:12.675Z,636
2017-11-15T10:15:12.554Z,632
2017-11-15T10:16:12.547Z,644
2017-11-15T10:17:13.113Z,648
2017-11-15T10:18:12.528Z,640
2017-11-15T10:19:12.515Z,644
2017-11-15T10:20:12.764Z,640
2017-11-15T10:21:12.491Z,640
2017-11-15T10:22:12.490Z,640
2017-11-15T10:23:12.827Z,636
2017-11-15T10:24:12.724Z,636
2017-11-15T10:25:12.466Z,644
2017-11-15T10:26:12.445Z,644
2017-11-15T10:27:12.528Z,648
2017-11-15T10:28:12.426Z,644
2017-11-15T10:29:12.661Z,644
2017-11-15T10:30:12.139Z,656
2017-11-15T10:31:12.398Z,656
2017-11-15T10:32:12.374Z,668
2017-11-15T10:33:12.376Z,664
2017-11-15T10:34:12.352Z,672
2017-11-15T10:35:12.823Z,680
2017-11-15T10:36:12.600Z,668
2017-11-15T10:37:12.605Z,660
2017-11-15T10:38:12.312Z,664
2017-11-15T10:39:12.046Z,668
2017-11-15T10:40:12.796Z,664
2017-11-15T10:41:12.389Z,660
2017-11-15T10:42:12.628Z,660
2017-11-15T10:43:12.263Z,668
2017-11-15T10:44:11.731Z,664
2017-11-15T10:45:12.260Z,664
2017-11-15T10:46:12.234Z,664
2017-11-15T10:47:12.480Z,668
2017-11-15T10:48:12.210Z,676
2017-11-15T10:49:12.196Z,688
2017-11-15T10:50:12.448Z,692
2017-11-15T10:51:11.922Z,692
2017-11-15T10:52:12.174Z,700
2017-11-15T10:53:12.415Z,708
2017-11-15T10:54:12.407Z,732
2017-11-15T10:55:12.134Z,732
2017-11-15T10:56:12.130Z,716
2017-11-15T10:57:12.117Z,712
2017-11-15T10:58:12.374Z,716
2017-11-15T10:59:12.103Z,704
2017-11-15T11:00:12.084Z,724
2017-11-15T11:01:12.430Z,740
2017-11-15T11:02:11.803Z,748
2017-11-15T11:03:12.069Z,756
2017-11-15T11:04:12.399Z,764
2017-11-15T11:05:12.294Z,792
2017-11-15T11:06:12.394Z,816
2017-11-15T11:07:12.058Z,828
2017-11-15T11:08:12.004Z,812
2017-11-15T11:09:12.256Z,796
2017-11-15T11:10:12.257Z,784
2017-11-15T11:11:12.225Z,772
2017-11-15T11:12:11.718Z,816
2017-11-15T11:13:11.951Z,680
2017-11-15T11:14:12.196Z,656
2017-11-15T11:15:12.188Z,648
2017-11-15T11:16:12.180Z,700
2017-11-15T11:17:11.646Z,652
2017-11-15T11:18:11.638Z,632
2017-11-15T11:19:12.153Z,660
2017-11-15T11:20:11.883Z,672
2017-11-15T11:21:11.866Z,668
2017-11-15T11:22:11.861Z,592
2017-11-15T11:23:11.856Z,580
2017-11-15T11:24:11.839Z,596
2017-11-15T11:25:12.084Z,588
2017-11-15T11:26:11.836Z,588
2017-11-15T11:27:11.550Z,620
2017-11-15T11:28:11.893Z,628
2017-11-15T11:29:11.269Z,760
2017-11-15T11:30:11.514Z,724
2017-11-15T11:31:11.763Z,764
2017-11-15T11:32:12.025Z,860
2017-11-15T11:33:12.010Z,848
2017-11-15T11:34:11.841Z,824
2017-11-15T11:35:11.982Z,864
2017-11-15T11:36:12.070Z,752
2017-11-15T11:37:11.986Z,852
2017-11-15T11:38:11.694Z,896
2017-11-15T11:39:11.944Z,872
2017-11-15T11:40:11.666Z,852
2017-11-15T11:41:11.657Z,824
2017-11-15T11:42:11.493Z,772
2017-11-15T11:43:11.901Z,836
2017-11-15T11:44:11.887Z,760
2017-11-15T11:45:11.361Z,712
2017-11-15T11:46:11.867Z,768
2017-11-15T11:47:12.042Z,812
2017-11-15T11:48:11.850Z,824
2017-11-15T11:49:11.832Z,816
2017-11-15T11:50:11.824Z,800
2017-11-15T11:51:11.840Z,780
2017-11-15T11:52:11.645Z,816
2017-11-15T11:53:11.890Z,776
2017-11-15T11:54:11.263Z,744
2017-11-15T11:55:11.517Z,620
2017-11-15T11:56:11.763Z,568
2017-11-15T11:57:11.750Z,688
2017-11-15T11:58:11.685Z,788
2017-11-15T11:59:11.834Z,796
2017-11-15T12:00:11.208Z,880
2017-11-15T12:01:11.725Z,840
2017-11-15T12:02:11.460Z,836
2017-11-15T12:03:11.700Z,824
2017-11-15T12:04:11.423Z,856
2017-11-15T12:05:11.514Z,840
2017-11-15T12:06:11.397Z,800
2017-11-15T12:07:11.648Z,928
2017-11-15T12:08:11.734Z,900
2017-11-15T12:09:11.629Z,856
2017-11-15T12:10:11.361Z,916
2017-11-15T12:11:11.453Z,744
2017-11-15T12:12:11.361Z,960
2017-11-15T12:13:11.584Z,920
2017-11-15T12:14:11.723Z,884
2017-11-15T12:15:11.317Z,880
2017-11-15T12:16:11.564Z,932
2017-11-15T12:17:11.030Z,912
2017-11-15T12:18:11.541Z,900
2017-11-15T12:19:11.266Z,828
2017-11-15T12:20:11.258Z,928
2017-11-15T12:21:11.505Z,908
2017-11-15T12:22:11.510Z,952
2017-11-15T12:23:11.487Z,944
2017-11-15T12:24:11.230Z,832
2017-11-15T12:25:11.486Z,776
2017-11-15T12:26:11.456Z,928
2017-11-15T12:27:11.194Z,964
2017-11-15T12:28:11.536Z,1052
2017-11-15T12:29:10.924Z,1116
2017-11-15T12:30:11.417Z,1232
2017-11-15T12:31:11.146Z,1228
2017-11-15T12:32:11.137Z,1212
2017-11-15T12:33:11.120Z,1064
2017-11-15T12:34:10.853Z,1004
2017-11-15T12:35:11.371Z,1068
2017-11-15T12:36:10.937Z,1272
2017-11-15T12:37:10.923Z,1248
2017-11-15T12:38:11.069Z,1176
2017-11-15T12:39:10.805Z,1100
2017-11-15T12:40:10.795Z,1052
2017-11-15T12:41:10.784Z,1084
2017-11-15T12:42:10.774Z,1032
2017-11-15T12:43:10.761Z,1012
2017-11-15T12:44:11.276Z,1004
2017-11-15T12:45:10.746Z,980
2017-11-15T12:46:11.249Z,956
2017-11-15T12:47:10.718Z,948
2017-11-15T12:48:10.984Z,936
2017-11-15T12:49:11.222Z,904
2017-11-15T12:50:11.214Z,780
2017-11-15T12:51:10.978Z,928
2017-11-15T12:52:11.186Z,916
2017-11-15T12:53:11.118Z,996
2017-11-15T12:54:11.278Z,1020
2017-11-15T12:55:11.158Z,1024
2017-11-15T12:56:10.635Z,1032
2017-11-15T12:57:11.138Z,984
2017-11-15T12:58:10.868Z,912
2017-11-15T12:59:10.600Z,1048
2017-11-15T13:00:11.120Z,1224
2017-11-15T13:01:10.850Z,1240
2017-11-15T13:02:10.565Z,1116
2017-11-15T13:03:10.817Z,1084
2017-11-15T13:04:11.168Z,1016
2017-11-15T13:05:10.795Z,812
2017-11-15T13:06:10.529Z,1044
2017-11-15T13:07:10.779Z,1080
2017-11-15T13:08:11.176Z,1172
2017-11-15T13:09:10.497Z,1232
2017-11-15T13:10:11.003Z,980
2017-11-15T13:11:10.735Z,1064
2017-11-15T13:12:11.051Z,1116
2017-11-15T13:13:10.975Z,1084
2017-11-15T13:14:10.965Z,1072
2017-11-15T13:15:10.692Z,1100
2017-11-15T13:16:10.892Z,1092
2017-11-15T13:17:10.675Z,1084
2017-11-15T13:18:10.922Z,1128
2017-11-15T13:19:10.910Z,1256
2017-11-15T13:20:10.899Z,1236
2017-11-15T13:21:10.638Z,1144
2017-11-15T13:22:10.634Z,1072
2017-11-15T13:23:10.715Z,1132
2017-11-15T13:24:10.861Z,1152
2017-11-15T13:25:10.336Z,1108
2017-11-15T13:26:10.589Z,1100
2017-11-15T13:27:10.838Z,1156
2017-11-15T13:28:10.853Z,1204
2017-11-15T13:29:10.810Z,1156
2017-11-15T13:30:10.542Z,1092
2017-11-15T13:31:10.815Z,1020
2017-11-15T13:32:10.522Z,1040
2017-11-15T13:33:10.250Z,1092
2017-11-15T13:34:10.507Z,1156
2017-11-15T13:35:10.759Z,1064
2017-11-15T13:36:10.477Z,952
2017-11-15T13:37:10.621Z,816
2017-11-15T13:38:10.816Z,804
2017-11-15T13:39:10.452Z,984
2017-11-15T13:40:10.808Z,996
2017-11-15T13:41:10.440Z,996
2017-11-15T13:42:10.417Z,984
2017-11-15T13:43:10.408Z,984
2017-11-15T13:44:10.412Z,976
2017-11-15T13:45:10.128Z,968
2017-11-15T13:46:10.489Z,988
2017-11-15T13:47:10.368Z,996
2017-11-15T13:48:10.617Z,972
2017-11-15T13:49:10.617Z,968
2017-11-15T13:50:10.343Z,956
2017-11-15T13:51:10.333Z,956
2017-11-15T13:52:10.319Z,980
2017-11-15T13:53:10.569Z,1000
2017-11-15T13:54:10.569Z,992
2017-11-15T13:55:10.391Z,988
2017-11-15T13:56:10.559Z,972
2017-11-15T13:57:10.274Z,972
2017-11-15T13:58:10.514Z,956
2017-11-15T13:59:10.249Z,948
2017-11-15T14:00:10.337Z,944
2017-11-15T14:01:10.227Z,952
2017-11-15T14:02:10.239Z,960
2017-11-15T14:03:10.465Z,964
2017-11-15T14:04:10.602Z,976
2017-11-15T14:05:10.297Z,996
2017-11-15T14:06:10.181Z,1004
2017-11-15T14:07:10.174Z,1016
2017-11-15T14:08:10.415Z,1028
2017-11-15T14:09:10.427Z,1048
2017-11-15T14:10:10.145Z,1064